createdAt,value
2022-12-31T00:01:11.248Z,27.42
2022-12-31T00:03:58.449Z,24.67
2022-12-31T00:06:44.913Z,15.85
2022-12-31T00:09:31.230Z,22.58
2022-12-31T00:12:17.342Z,24.05
2022-12-31T00:15:03.564Z,23.55
2022-12-31T00:17:49.524Z,24.42
2022-12-31T00:20:35.744Z,23.63
2022-12-31T00:23:22.214Z,25.02
2022-12-31T00:26:18.835Z,23.38
2022-12-31T00:29:05.854Z,25.65
2022-12-31T00:31:51.931Z,20.25
2022-12-31T00:34:38.201Z,22.92
2022-12-31T00:37:24.300Z,20.30
2022-12-31T00:40:10.817Z,26.13
2022-12-31T00:42:57.069Z,25.27
2022-12-31T00:45:43.335Z,22.25
2022-12-31T00:48:29.810Z,27.45
2022-12-31T00:51:17.148Z,23.23
2022-12-31T00:54:03.528Z,22.88
2022-12-31T00:56:49.611Z,29.08
2022-12-31T00:59:35.853Z,21.80
2022-12-31T01:02:22.191Z,28.48
2022-12-31T01:05:08.667Z,23.23
2022-12-31T01:07:54.851Z,34.05
2022-12-31T01:10:59.589Z,28.38
2022-12-31T01:14:05.502Z,35.50
2022-12-31T01:16:53.805Z,21.52
2022-12-31T01:19:39.933Z,25.58
2022-12-31T01:22:26.110Z,30.63
2022-12-31T01:25:12.351Z,33.28
2022-12-31T01:27:58.733Z,31.30
2022-12-31T01:30:45.179Z,27.25
2022-12-31T01:33:31.258Z,22.88
2022-12-31T01:36:25.551Z,26.73
2022-12-31T01:39:12.801Z,25.20
2022-12-31T01:41:59.127Z,24.38
2022-12-31T01:44:49.533Z,26.42
2022-12-31T01:47:40.976Z,23.55
2022-12-31T01:50:31.427Z,27.58
2022-12-31T01:53:18.903Z,20.40
2022-12-31T01:56:05.485Z,29.42
2022-12-31T01:58:53.291Z,24.88
2022-12-31T02:01:39.925Z,22.23
2022-12-31T02:04:27.324Z,26.95
2022-12-31T02:07:14.019Z,29.65
2022-12-31T02:10:00.833Z,25.45
2022-12-31T02:12:47.887Z,31.05
2022-12-31T02:15:40.503Z,35.83
2022-12-31T02:18:32.800Z,23.98
2022-12-31T02:21:34.571Z,22.93
2022-12-31T02:24:33.257Z,19.80
2022-12-31T02:27:57.950Z,28.00
2022-12-31T02:30:46.974Z,28.83
2022-12-31T02:33:36.365Z,21.50
2022-12-31T02:36:28.571Z,23.77
2022-12-31T02:39:15.432Z,20.95
2022-12-31T02:42:02.111Z,25.02
2022-12-31T02:44:49.178Z,22.10
2022-12-31T02:47:54.156Z,24.58
2022-12-31T02:51:07.050Z,24.33
2022-12-31T02:54:12.235Z,30.73
2022-12-31T02:57:04.937Z,22.05
2022-12-31T03:00:11.987Z,27.58
2022-12-31T03:02:59.499Z,25.20
2022-12-31T03:05:45.872Z,24.75
2022-12-31T03:08:32.299Z,26.50
2022-12-31T03:11:38.425Z,20.00
2022-12-31T03:14:24.642Z,21.75
2022-12-31T03:17:10.687Z,26.85
2022-12-31T03:20:15.430Z,23.33
2022-12-31T03:23:01.754Z,25.58
2022-12-31T03:25:48.405Z,24.23
2022-12-31T03:28:34.841Z,25.50
2022-12-31T03:31:21.086Z,27.33
2022-12-31T03:34:07.047Z,25.55
2022-12-31T03:36:52.937Z,21.55
2022-12-31T03:39:38.992Z,27.00
2022-12-31T03:42:25.160Z,27.08
2022-12-31T03:45:12.206Z,26.48
2022-12-31T03:47:59.024Z,22.92
2022-12-31T03:50:45.535Z,22.75
2022-12-31T03:53:32.219Z,21.02
2022-12-31T03:56:18.417Z,26.35
2022-12-31T03:59:04.451Z,26.25
2022-12-31T04:01:52.478Z,23.63
2022-12-31T04:04:38.827Z,27.00
2022-12-31T04:07:25.155Z,24.92
2022-12-31T04:10:12.979Z,24.00
2022-12-31T04:13:02.375Z,25.13
2022-12-31T04:15:50.999Z,25.52
2022-12-31T04:18:37.197Z,23.15
2022-12-31T04:21:23.329Z,19.25
2022-12-31T04:24:09.813Z,23.17
2022-12-31T04:26:57.852Z,24.35
2022-12-31T04:29:46.308Z,24.30
2022-12-31T04:32:32.697Z,20.15
2022-12-31T04:35:18.848Z,23.25
2022-12-31T04:38:05.036Z,18.90
2022-12-31T04:41:10.026Z,20.17
2022-12-31T04:43:57.524Z,21.75
2022-12-31T04:46:43.961Z,18.42
2022-12-31T04:49:30.141Z,20.48
2022-12-31T04:52:16.313Z,23.30
2022-12-31T04:55:02.532Z,23.23
2022-12-31T04:57:48.654Z,17.98
2022-12-31T05:00:34.925Z,25.15
2022-12-31T05:03:21.761Z,17.77
2022-12-31T05:06:18.470Z,21.45
2022-12-31T05:09:04.919Z,23.75
2022-12-31T05:11:51.489Z,25.00
2022-12-31T05:14:37.837Z,26.17
2022-12-31T05:17:24.053Z,18.55
2022-12-31T05:20:10.460Z,24.33
2022-12-31T05:22:56.834Z,21.63
2022-12-31T05:25:44.148Z,21.13
2022-12-31T05:28:30.630Z,22.23
2022-12-31T05:31:16.740Z,22.52
2022-12-31T05:34:03.160Z,23.02
2022-12-31T05:36:49.454Z,21.38
2022-12-31T05:39:35.721Z,23.83
2022-12-31T05:42:22.521Z,22.23
2022-12-31T05:45:09.235Z,22.60
2022-12-31T05:47:55.755Z,21.00
2022-12-31T05:50:42.242Z,25.45
2022-12-31T05:53:28.473Z,21.30
2022-12-31T05:56:14.527Z,20.55
2022-12-31T05:59:00.881Z,21.23
2022-12-31T06:01:47.108Z,26.85
2022-12-31T06:04:34.067Z,23.92
2022-12-31T06:07:20.385Z,20.13
2022-12-31T06:10:06.891Z,18.00
2022-12-31T06:12:53.296Z,21.95
2022-12-31T06:15:40.200Z,25.27
2022-12-31T06:18:26.516Z,20.52
2022-12-31T06:21:12.797Z,19.70
2022-12-31T06:23:59.358Z,18.27
2022-12-31T06:26:45.784Z,18.60
2022-12-31T06:29:32.293Z,20.33
2022-12-31T06:32:18.769Z,22.08
2022-12-31T06:35:05.204Z,18.92
2022-12-31T06:37:52.833Z,23.85
2022-12-31T06:40:39.449Z,20.17
2022-12-31T06:43:25.745Z,23.38
2022-12-31T06:46:13.427Z,25.48
2022-12-31T06:48:59.596Z,23.15
2022-12-31T06:51:47.614Z,24.67
2022-12-31T06:54:34.436Z,24.13
2022-12-31T06:57:20.627Z,23.30
2022-12-31T07:00:07.005Z,18.17
2022-12-31T07:03:01.696Z,23.23
2022-12-31T07:05:51.885Z,26.60
2022-12-31T07:08:44.581Z,23.38
2022-12-31T07:11:36.694Z,23.30
2022-12-31T07:14:31.403Z,21.67
2022-12-31T07:17:20.472Z,20.88
2022-12-31T07:20:10.805Z,21.85
2022-12-31T07:22:57.426Z,25.88
2022-12-31T07:25:48.904Z,24.30
2022-12-31T07:28:53.996Z,22.55
2022-12-31T07:31:59.409Z,23.02
2022-12-31T07:34:48.856Z,18.75
2022-12-31T07:37:41.398Z,23.90
2022-12-31T07:40:37.921Z,23.50
2022-12-31T07:43:24.355Z,26.90
2022-12-31T07:46:29.249Z,22.67
2022-12-31T07:49:15.827Z,27.67
2022-12-31T07:52:02.293Z,25.88
2022-12-31T07:54:49.223Z,25.08
2022-12-31T07:57:38.303Z,24.60
2022-12-31T08:00:24.981Z,33.17
2022-12-31T08:03:14.550Z,27.48
2022-12-31T08:06:12.357Z,24.88
2022-12-31T08:09:37.316Z,32.65
2022-12-31T08:12:24.278Z,31.08
2022-12-31T08:15:17.897Z,29.92
2022-12-31T08:18:04.227Z,24.52
2022-12-31T08:20:56.569Z,29.83
2022-12-31T08:24:01.895Z,27.15
2022-12-31T08:26:53.174Z,28.55
2022-12-31T08:29:49.509Z,32.60
2022-12-31T08:32:38.714Z,29.58
2022-12-31T08:35:27.832Z,31.83
2022-12-31T08:38:23.359Z,31.23
2022-12-31T08:41:19.063Z,27.73
2022-12-31T08:44:20.122Z,30.35
2022-12-31T08:47:25.289Z,24.38
2022-12-31T08:50:16.946Z,33.53
2022-12-31T08:53:03.603Z,29.52
2022-12-31T08:55:52.359Z,28.73
2022-12-31T08:58:48.004Z,29.00
2022-12-31T09:01:43.086Z,30.92
2022-12-31T09:04:48.309Z,33.30
2022-12-31T09:07:38.005Z,27.90
2022-12-31T09:10:30.591Z,34.58
2022-12-31T09:13:31.449Z,32.33
2022-12-31T09:16:20.680Z,30.10
2022-12-31T09:19:06.877Z,36.65
2022-12-31T09:21:53.087Z,32.53
2022-12-31T09:24:39.323Z,33.05
2022-12-31T09:27:46.075Z,36.83
2022-12-31T09:30:38.459Z,34.35
2022-12-31T09:33:35.570Z,34.58
2022-12-31T09:36:31.427Z,36.65
2022-12-31T09:39:23.361Z,33.00
2022-12-31T09:42:29.398Z,43.38
2022-12-31T09:45:18.640Z,46.50
2022-12-31T09:48:20.239Z,39.25
2022-12-31T09:51:25.667Z,40.80
2022-12-31T09:54:15.383Z,36.95
2022-12-31T09:57:08.014Z,38.78
2022-12-31T09:59:57.466Z,38.20
2022-12-31T10:03:02.649Z,36.33
2022-12-31T10:06:08.276Z,40.55
2022-12-31T10:09:27.103Z,40.20
2022-12-31T10:12:32.508Z,38.90
2022-12-31T10:15:34.966Z,41.38
2022-12-31T10:18:36.986Z,33.95
2022-12-31T10:21:42.266Z,38.13
2022-12-31T10:24:44.247Z,40.17
2022-12-31T10:27:30.708Z,36.03
2022-12-31T10:30:17.640Z,42.25
2022-12-31T10:33:13.291Z,39.47
2022-12-31T10:36:10.136Z,39.63
2022-12-31T10:38:59.208Z,41.85
2022-12-31T10:41:49.151Z,42.20
2022-12-31T10:44:53.133Z,39.00
2022-12-31T10:50:37.790Z,42.20
2022-12-31T10:54:02.704Z,41.75
2022-12-31T10:56:48.853Z,41.03
2022-12-31T10:59:54.693Z,43.75
2022-12-31T11:02:41.290Z,43.85
2022-12-31T11:05:47.955Z,39.65
2022-12-31T11:08:46.971Z,42.50
2022-12-31T11:11:46.437Z,44.60
2022-12-31T11:14:47.767Z,41.90
2022-12-31T11:17:37.243Z,52.10
2022-12-31T11:20:47.076Z,46.00
2022-12-31T11:23:53.218Z,47.28
2022-12-31T11:26:57.598Z,48.28
2022-12-31T11:29:57.718Z,45.42
2022-12-31T11:32:52.518Z,47.47
2022-12-31T11:36:01.365Z,50.65
2022-12-31T11:39:13.957Z,50.08
2022-12-31T11:42:08.929Z,54.72
2022-12-31T11:45:02.205Z,50.28
2022-12-31T11:51:16.190Z,48.83
2022-12-31T11:54:21.446Z,48.28
2022-12-31T11:57:20.203Z,53.80
2022-12-31T12:00:19.168Z,46.13
2022-12-31T12:03:07.222Z,53.70
2022-12-31T12:05:53.546Z,50.72
2022-12-31T12:08:39.863Z,50.53
2022-12-31T12:11:26.895Z,48.92
2022-12-31T12:14:20.631Z,51.13
2022-12-31T12:19:56.743Z,51.72
2022-12-31T12:22:49.738Z,51.33
2022-12-31T12:25:43.514Z,53.15
2022-12-31T12:28:31.442Z,54.30
2022-12-31T12:31:22.381Z,53.15
2022-12-31T12:34:23.397Z,53.50
2022-12-31T12:37:39.225Z,50.53
2022-12-31T12:40:33.414Z,50.33
2022-12-31T12:43:24.733Z,56.47
2022-12-31T12:46:20.362Z,51.65
2022-12-31T12:49:06.784Z,50.58
2022-12-31T12:51:59.353Z,50.42
2022-12-31T12:55:04.652Z,52.17
2022-12-31T12:58:01.164Z,51.08
2022-12-31T13:00:47.597Z,50.72
2022-12-31T13:04:07.417Z,53.80
2022-12-31T13:07:02.013Z,53.50
2022-12-31T13:10:01.547Z,57.67
2022-12-31T13:13:22.680Z,62.30
2022-12-31T13:15:58.128Z,55.58
2022-12-31T13:18:47.368Z,56.45
2022-12-31T13:21:38.284Z,55.80
2022-12-31T13:24:37.250Z,58.85
2022-12-31T13:27:31.956Z,60.95
2022-12-31T13:30:20.382Z,56.42
2022-12-31T13:33:21.367Z,58.03
2022-12-31T13:36:24.798Z,65.38
2022-12-31T13:39:23.676Z,62.08
2022-12-31T13:42:17.812Z,63.08
2022-12-31T13:45:10.729Z,57.90
2022-12-31T13:48:33.725Z,65.07
2022-12-31T13:51:38.532Z,65.75
2022-12-31T13:54:39.844Z,70.47
2022-12-31T13:57:29.553Z,72.25
2022-12-31T14:00:22.982Z,77.05
2022-12-31T14:03:12.307Z,74.32
2022-12-31T14:06:17.792Z,77.82
2022-12-31T14:09:05.610Z,74.97
2022-12-31T14:12:10.787Z,80.10
2022-12-31T14:15:06.436Z,77.53
2022-12-31T14:18:10.720Z,87.88
2022-12-31T14:20:57.363Z,80.75
2022-12-31T14:23:53.684Z,86.07
2022-12-31T14:26:42.128Z,90.30
2022-12-31T14:29:33.546Z,83.82
2022-12-31T14:32:22.951Z,91.20
2022-12-31T14:35:15.150Z,81.68
2022-12-31T14:38:01.177Z,87.53
2022-12-31T14:40:59.453Z,90.28
2022-12-31T14:43:53.889Z,85.78
2022-12-31T14:46:49.290Z,94.13
2022-12-31T14:49:41.595Z,89.25
2022-12-31T14:52:27.779Z,100.15
2022-12-31T14:55:23.410Z,94.82
2022-12-31T14:58:39.109Z,101.68
2022-12-31T15:01:26.604Z,99.75
2022-12-31T15:04:15.789Z,105.20
2022-12-31T15:07:12.377Z,115.00
2022-12-31T15:09:58.727Z,104.13
2022-12-31T15:12:51.073Z,105.95
2022-12-31T15:15:55.775Z,109.43
2022-12-31T15:18:57.426Z,115.05
2022-12-31T15:22:02.714Z,111.55
2022-12-31T15:24:49.022Z,115.38
2022-12-31T15:27:36.814Z,112.30
2022-12-31T15:30:29.187Z,132.40
2022-12-31T15:33:35.686Z,133.18
2022-12-31T15:36:23.862Z,138.18
2022-12-31T15:39:13.126Z,130.93
2022-12-31T15:42:36.924Z,130.00
2022-12-31T15:45:08.585Z,137.73
2022-12-31T15:47:57.852Z,115.95
2022-12-31T15:50:44.099Z,128.35
2022-12-31T15:53:34.256Z,121.80
2022-12-31T15:56:33.199Z,112.85
2022-12-31T15:59:19.829Z,125.18
2022-12-31T16:02:17.330Z,127.28
2022-12-31T16:05:04.313Z,110.85
2022-12-31T16:07:53.587Z,105.72
2022-12-31T16:10:40.108Z,113.10
2022-12-31T16:13:26.825Z,108.57
2022-12-31T16:16:30.054Z,130.13
2022-12-31T16:19:27.943Z,103.72
2022-12-31T16:22:26.009Z,100.38
2022-12-31T16:25:30.675Z,99.78
2022-12-31T16:28:20.064Z,94.65
2022-12-31T16:31:16.062Z,91.38
2022-12-31T16:34:07.091Z,91.78
2022-12-31T16:36:57.767Z,90.38
2022-12-31T16:40:04.408Z,90.85
2022-12-31T16:42:53.163Z,98.85
2022-12-31T16:45:39.619Z,101.15
2022-12-31T16:48:26.575Z,90.18
2022-12-31T16:51:17.031Z,87.63
2022-12-31T16:54:03.538Z,85.60
2022-12-31T16:56:49.998Z,87.13
2022-12-31T16:59:40.104Z,88.53
2022-12-31T17:02:40.561Z,94.53
2022-12-31T17:05:28.202Z,83.20
2022-12-31T17:08:25.327Z,111.70
2022-12-31T17:11:31.762Z,98.78
2022-12-31T17:14:19.771Z,89.05
2022-12-31T17:17:07.607Z,85.97
2022-12-31T17:19:58.440Z,86.57
2022-12-31T17:22:45.131Z,80.72
2022-12-31T17:25:33.213Z,77.78
2022-12-31T17:28:24.295Z,80.82
2022-12-31T17:31:27.653Z,75.90
2022-12-31T17:34:13.992Z,80.10
2022-12-31T17:37:02.170Z,74.25
2022-12-31T17:39:49.465Z,72.55
2022-12-31T17:42:38.023Z,78.47
2022-12-31T17:45:24.265Z,72.88
2022-12-31T17:48:15.343Z,67.88
2022-12-31T17:51:02.089Z,70.43
2022-12-31T17:53:49.072Z,66.60
2022-12-31T17:56:35.406Z,68.35
2022-12-31T17:59:29.837Z,71.43
2022-12-31T18:02:16.439Z,66.05
2022-12-31T18:05:02.556Z,72.15
2022-12-31T18:07:48.572Z,70.90
2022-12-31T18:10:36.606Z,81.50
2022-12-31T18:13:24.765Z,76.20
2022-12-31T18:16:11.013Z,78.82
2022-12-31T18:18:58.511Z,73.43
2022-12-31T18:21:45.172Z,77.40
2022-12-31T18:24:31.691Z,81.47
2022-12-31T18:27:19.501Z,75.88
2022-12-31T18:30:07.632Z,75.90
2022-12-31T18:32:54.788Z,95.30
2022-12-31T18:36:08.195Z,88.90
2022-12-31T18:38:49.903Z,80.95
2022-12-31T18:41:39.761Z,75.00
2022-12-31T18:44:25.900Z,67.00
2022-12-31T18:47:16.365Z,67.53
2022-12-31T18:50:02.735Z,60.65
2022-12-31T18:52:48.861Z,63.92
2022-12-31T18:55:42.731Z,62.60
2022-12-31T18:58:29.242Z,62.60
2022-12-31T19:01:27.930Z,62.95
2022-12-31T19:04:27.961Z,57.05
2022-12-31T19:07:15.044Z,57.63
2022-12-31T19:10:01.389Z,59.20
2022-12-31T19:12:47.894Z,60.25
2022-12-31T19:15:39.328Z,58.35
2022-12-31T19:18:25.638Z,59.35
2022-12-31T19:21:16.930Z,60.33
2022-12-31T19:24:02.968Z,58.00
2022-12-31T19:26:49.249Z,57.28
2022-12-31T19:29:36.152Z,63.65
2022-12-31T19:32:22.387Z,65.35
2022-12-31T19:35:09.685Z,62.00
2022-12-31T19:37:56.156Z,62.65
2022-12-31T19:40:42.667Z,65.28
2022-12-31T19:43:29.288Z,72.35
2022-12-31T19:46:17.289Z,66.85
2022-12-31T19:49:03.543Z,61.80
2022-12-31T19:51:50.066Z,73.45
2022-12-31T19:54:36.418Z,77.25
2022-12-31T19:57:22.574Z,71.78
2022-12-31T20:00:09.494Z,65.38
2022-12-31T20:02:59.264Z,63.33
2022-12-31T20:05:46.537Z,58.45
2022-12-31T20:08:32.638Z,61.90
2022-12-31T20:11:20.247Z,59.00
2022-12-31T20:14:06.508Z,63.05
2022-12-31T20:16:52.907Z,59.40
2022-12-31T20:19:39.394Z,62.85
2022-12-31T20:22:25.422Z,60.03
2022-12-31T20:25:11.653Z,95.65
2022-12-31T20:27:58.467Z,112.18
2022-12-31T20:30:44.605Z,92.55
2022-12-31T20:33:31.156Z,74.03
2022-12-31T20:36:17.975Z,72.97
2022-12-31T20:39:04.387Z,76.25
2022-12-31T20:41:50.792Z,67.20
2022-12-31T20:44:37.292Z,54.13
2022-12-31T20:47:23.508Z,50.35
2022-12-31T20:50:11.885Z,54.80
2022-12-31T20:52:58.855Z,85.82
2022-12-31T20:55:44.983Z,169.77
2022-12-31T20:58:31.294Z,222.38
2022-12-31T21:01:18.126Z,141.48
2022-12-31T21:04:06.694Z,188.98
2022-12-31T21:06:53.205Z,110.50
2022-12-31T21:09:39.835Z,807.65
2022-12-31T21:12:44.329Z,867.03
2022-12-31T21:15:30.705Z,531.00
2022-12-31T21:18:17.043Z,333.80
2022-12-31T21:21:03.630Z,243.90
2022-12-31T21:23:49.719Z,208.38
2022-12-31T21:26:35.883Z,163.95
2022-12-31T21:29:21.989Z,138.48
2022-12-31T21:32:08.257Z,154.82
2022-12-31T21:35:23.160Z,155.00
2022-12-31T21:38:01.813Z,86.32
2022-12-31T21:40:47.986Z,76.47
2022-12-31T21:43:35.087Z,57.72
2022-12-31T21:46:21.351Z,61.72
2022-12-31T21:49:07.335Z,163.60
2022-12-31T21:52:12.086Z,69.30
2022-12-31T21:55:18.110Z,52.80
2022-12-31T22:01:37.181Z,67.40
2022-12-31T22:05:00.367Z,338.10
2022-12-31T22:07:29.890Z,308.30
2022-12-31T22:10:15.986Z,697.35
2022-12-31T22:13:02.034Z,1877.10
2022-12-31T22:15:49.334Z,1613.82
2022-12-31T22:18:39.047Z,1351.97
2022-12-31T22:21:26.852Z,1187.80
2022-12-31T22:24:13.370Z,879.70
2022-12-31T22:27:27.806Z,652.47
2022-12-31T22:30:08.432Z,605.08
2022-12-31T22:32:54.493Z,566.33
2022-12-31T22:35:40.857Z,418.40
2022-12-31T22:38:27.885Z,371.60
2022-12-31T22:41:15.442Z,259.67
2022-12-31T22:44:04.804Z,247.63
2022-12-31T22:46:51.764Z,196.20
2022-12-31T22:49:38.387Z,199.55
2022-12-31T22:52:24.462Z,184.88
2022-12-31T22:55:10.830Z,149.55
2022-12-31T22:57:57.409Z,122.95
2022-12-31T23:00:43.488Z,102.45
2022-12-31T23:03:29.699Z,104.95
2022-12-31T23:06:16.358Z,90.03
2022-12-31T23:09:20.849Z,78.05
2022-12-31T23:12:08.377Z,83.38
2022-12-31T23:15:13.549Z,91.35
2022-12-31T23:18:18.667Z,90.03
2022-12-31T23:21:29.130Z,107.53
2022-12-31T23:24:22.784Z,170.82
2022-12-31T23:27:17.490Z,153.05
2022-12-31T23:30:03.769Z,106.63
2022-12-31T23:32:50.541Z,112.82
2022-12-31T23:35:37.009Z,102.20
2022-12-31T23:38:23.253Z,94.60
2022-12-31T23:41:16.112Z,77.00
2022-12-31T23:44:02.956Z,73.30
2022-12-31T23:46:49.501Z,51.00
2022-12-31T23:49:35.621Z,51.97
2022-12-31T23:52:21.674Z,53.83
2022-12-31T23:55:07.996Z,51.47
2022-12-31T23:57:54.243Z,47.47
